Pagrindinis puslapis
METAR-TAF:

METAR-TAF

Oro uostai :

Anaktuvuk Pass, Aliaska, Jungtinės Amerikos Valstijos

platuma: 68-08-01N, ilguma: 151-44-36W, Aukštis: 641 m

Dabartinis oras

Ataskaita buvo paskelbta 12 minutes, ne 21:25 UTC
Vėjas 8 kt iš Šiaurės/Šiaurės Rytų
Temperatūra 0°C
Drėgmė 80%
Slėgis 996 hPa
Matomumas: 14.5 km
Išsisklaidę debesys ne aukštis 700 ft
Apsiniaukę ne aukštis 6000 ft
sniegas

METAR: PAKP 212125Z AUTO 03008KT 9SM -SN SCT007 OVC060 00/M03 A2940 RMK AO2 P0000 FZRANO

Laikas: 13:37 (21:37 UTC)


TAF: trūkstamas

Orai ataskaitas ir orų prognozės (METAR, TAF).

turimą stotys yra geltonos ir raudonos taškus žemėlapyje.

Perkelti pele per norėdami pamatyti stoties vardą.

Tada spustelėkite, norėdami matyti oro stebėjimo ir prognozės.

Norėdami pakeisti žemėlapį: spustelėkite ant žalios mygtukų su juodo kryžiaus žemyn,; žalią mygtuką su brūkšneliu, jei norite nutolinti; arba žalių rodyklių gretimoms žemėlapius.


METAR-TAF: